createdAt,value
2022-08-21T00:01:16.010Z,99.90
2022-08-21T00:03:43.554Z,99.90
2022-08-21T00:06:15.713Z,99.90
2022-08-21T00:08:43.450Z,99.90
2022-08-21T00:11:14.367Z,99.90
2022-08-21T00:13:42.369Z,99.90
2022-08-21T00:16:10.268Z,99.90
2022-08-21T00:18:40.115Z,99.90
2022-08-21T00:21:07.198Z,99.90
2022-08-21T00:23:36.728Z,99.90
2022-08-21T00:26:04.231Z,99.90
2022-08-21T00:28:34.415Z,99.90
2022-08-21T00:31:06.926Z,99.90
2022-08-21T00:33:37.166Z,99.90
2022-08-21T00:36:06.607Z,99.90
2022-08-21T00:38:34.468Z,99.90
2022-08-21T00:41:10.257Z,99.90
2022-08-21T00:43:57.647Z,99.90
2022-08-21T00:46:28.448Z,99.90
2022-08-21T00:48:58.930Z,99.90
2022-08-21T00:51:44.357Z,99.90
2022-08-21T00:54:19.339Z,99.90
2022-08-21T00:56:53.681Z,99.90
2022-08-21T00:59:26.548Z,99.90
2022-08-21T01:01:57.005Z,99.90
2022-08-21T01:04:26.552Z,99.90
2022-08-21T01:06:55.921Z,99.90
2022-08-21T01:09:25.442Z,99.90
2022-08-21T01:11:52.903Z,99.90
2022-08-21T01:14:22.815Z,99.90
2022-08-21T01:16:57.209Z,99.90
2022-08-21T01:19:28.213Z,99.90
2022-08-21T01:22:03.217Z,99.90
2022-08-21T01:24:33.339Z,99.90
2022-08-21T01:27:02.290Z,99.90
2022-08-21T01:29:48.974Z,99.90
2022-08-21T01:32:22.787Z,99.90
2022-08-21T01:34:52.187Z,99.90
2022-08-21T01:37:23.634Z,99.90
2022-08-21T01:39:51.007Z,99.90
2022-08-21T01:42:20.795Z,99.90
2022-08-21T01:44:50.475Z,99.90
2022-08-21T01:47:27.744Z,99.90
2022-08-21T01:50:02.505Z,99.90
2022-08-21T01:52:32.094Z,99.90
2022-08-21T01:55:02.192Z,99.90
2022-08-21T01:57:29.439Z,99.90
2022-08-21T01:59:59.551Z,99.90
2022-08-21T02:02:29.474Z,99.90
2022-08-21T02:04:58.926Z,99.90
2022-08-21T02:07:28.792Z,99.90
2022-08-21T02:09:58.025Z,99.90
2022-08-21T02:12:27.370Z,99.90
2022-08-21T02:14:57.346Z,99.90
2022-08-21T02:17:27.082Z,99.90
2022-08-21T02:19:54.248Z,99.90
2022-08-21T02:22:21.511Z,99.90
2022-08-21T02:24:55.041Z,99.90
2022-08-21T02:27:26.094Z,99.90
2022-08-21T02:29:57.289Z,99.90
2022-08-21T02:32:31.904Z,99.90
2022-08-21T02:34:59.190Z,99.90
2022-08-21T02:37:26.566Z,99.90
2022-08-21T02:40:03.958Z,99.90
2022-08-21T02:42:33.550Z,99.90
2022-08-21T02:45:00.846Z,99.90
2022-08-21T02:47:32.539Z,99.90
2022-08-21T02:49:59.701Z,99.90
2022-08-21T02:52:29.290Z,99.90
2022-08-21T02:54:58.824Z,99.90
2022-08-21T02:57:28.846Z,99.90
2022-08-21T02:59:58.355Z,99.90
2022-08-21T03:02:30.061Z,99.90
2022-08-21T03:04:59.834Z,99.90
2022-08-21T03:07:31.777Z,99.90
2022-08-21T03:10:05.708Z,99.90
2022-08-21T03:12:36.422Z,99.90
2022-08-21T03:15:08.497Z,99.90
2022-08-21T03:17:40.713Z,99.90
2022-08-21T03:20:13.099Z,99.90
2022-08-21T03:22:48.526Z,99.90
2022-08-21T03:25:33.723Z,99.90
2022-08-21T03:28:18.383Z,99.90
2022-08-21T03:30:48.409Z,99.90
2022-08-21T03:33:23.727Z,99.90
2022-08-21T03:36:05.597Z,99.90
2022-08-21T03:38:35.018Z,99.90
2022-08-21T03:41:06.781Z,99.90
2022-08-21T03:43:37.612Z,99.90
2022-08-21T03:46:10.393Z,99.90
2022-08-21T03:48:45.490Z,99.90
2022-08-21T03:51:15.921Z,99.90
2022-08-21T03:53:45.877Z,99.90
2022-08-21T03:56:17.750Z,99.90
2022-08-21T03:58:49.741Z,99.90
2022-08-21T04:01:17.164Z,99.90
2022-08-21T04:03:46.502Z,99.90
2022-08-21T04:06:13.882Z,99.90
2022-08-21T04:08:50.835Z,99.90
2022-08-21T04:11:20.346Z,99.90
2022-08-21T04:13:47.837Z,99.90
2022-08-21T04:16:15.254Z,99.90
2022-08-21T04:18:47.425Z,99.90
2022-08-21T04:21:16.675Z,99.90
2022-08-21T04:23:46.753Z,99.90
2022-08-21T04:26:13.962Z,99.90
2022-08-21T04:28:47.752Z,99.90
2022-08-21T04:31:15.521Z,99.90
2022-08-21T04:33:42.735Z,99.90
2022-08-21T04:36:12.718Z,99.90
2022-08-21T04:38:44.881Z,99.90
2022-08-21T04:41:14.972Z,99.90
2022-08-21T04:43:45.359Z,99.90
2022-08-21T04:46:15.345Z,99.90
2022-08-21T04:48:49.479Z,99.90
2022-08-21T04:51:31.129Z,99.90
2022-08-21T04:54:29.954Z,99.90
2022-08-21T04:57:04.681Z,99.90
2022-08-21T04:59:37.555Z,99.90
2022-08-21T05:02:09.757Z,99.90
2022-08-21T05:04:38.880Z,99.90
2022-08-21T05:07:15.606Z,99.90
2022-08-21T05:09:48.548Z,99.90
2022-08-21T05:12:20.631Z,99.90
2022-08-21T05:14:50.366Z,99.90
2022-08-21T05:17:20.043Z,99.90
2022-08-21T05:19:49.593Z,99.90
2022-08-21T05:22:25.458Z,99.90
2022-08-21T05:24:55.039Z,99.90
2022-08-21T05:27:22.485Z,99.90
2022-08-21T05:29:55.416Z,99.90
2022-08-21T05:32:26.384Z,99.90
2022-08-21T05:34:53.465Z,99.90
2022-08-21T05:37:20.603Z,99.90
2022-08-21T05:40:04.963Z,99.90
2022-08-21T05:42:35.414Z,99.90
2022-08-21T05:45:05.423Z,99.90
2022-08-21T05:47:40.558Z,99.90
2022-08-21T05:50:08.359Z,99.90
2022-08-21T05:52:35.518Z,99.90
2022-08-21T05:55:07.696Z,99.90
2022-08-21T05:57:37.629Z,99.90
2022-08-21T06:00:05.763Z,99.90
2022-08-21T06:02:42.441Z,99.90
2022-08-21T06:05:12.030Z,99.90
2022-08-21T06:07:46.278Z,99.90
2022-08-21T06:10:13.894Z,99.90
2022-08-21T06:12:48.332Z,99.90
2022-08-21T06:15:18.261Z,99.90
2022-08-21T06:17:45.354Z,99.90
2022-08-21T06:20:14.780Z,99.90
2022-08-21T06:22:46.978Z,99.90
2022-08-21T06:25:16.451Z,99.90
2022-08-21T06:27:46.992Z,99.90
2022-08-21T06:30:16.402Z,99.90
2022-08-21T06:32:45.974Z,99.90
2022-08-21T06:35:20.563Z,99.90
2022-08-21T06:37:50.003Z,99.90
2022-08-21T06:40:22.563Z,99.90
2022-08-21T06:42:55.885Z,99.90
2022-08-21T06:45:28.410Z,99.90
2022-08-21T06:48:00.489Z,99.90
2022-08-21T06:50:31.267Z,99.90
2022-08-21T06:53:10.836Z,99.90
2022-08-21T06:55:41.378Z,99.90
2022-08-21T06:58:11.626Z,99.90
2022-08-21T07:00:49.945Z,99.90
2022-08-21T07:03:29.174Z,99.90
2022-08-21T07:05:59.314Z,99.90
2022-08-21T07:08:30.693Z,99.90
2022-08-21T07:11:10.766Z,99.90
2022-08-21T07:13:37.923Z,99.90
2022-08-21T07:16:05.643Z,99.90
2022-08-21T07:18:32.929Z,99.90
2022-08-21T07:21:04.730Z,99.90
2022-08-21T07:23:36.037Z,99.90
2022-08-21T07:26:03.246Z,99.90
2022-08-21T07:28:37.184Z,99.90
2022-08-21T07:31:07.386Z,99.90
2022-08-21T07:33:36.398Z,99.90
2022-08-21T07:36:06.631Z,99.90
2022-08-21T07:38:33.943Z,99.90
2022-08-21T07:41:02.651Z,99.90
2022-08-21T07:43:33.063Z,99.90
2022-08-21T07:46:06.165Z,99.90
2022-08-21T07:48:34.520Z,99.90
2022-08-21T07:51:09.841Z,99.90
2022-08-21T07:53:42.530Z,99.90
2022-08-21T07:56:13.164Z,99.90
2022-08-21T07:58:40.568Z,99.90
2022-08-21T08:01:07.965Z,99.90
2022-08-21T08:03:35.823Z,99.90
2022-08-21T08:06:06.057Z,99.90
2022-08-21T08:08:33.822Z,99.90
2022-08-21T08:11:03.574Z,99.90
2022-08-21T08:13:31.043Z,99.90
2022-08-21T08:16:00.262Z,99.90
2022-08-21T08:18:29.850Z,99.90
2022-08-21T08:21:04.479Z,99.90
2022-08-21T08:23:32.798Z,99.90
2022-08-21T08:26:01.082Z,99.90
2022-08-21T08:28:28.345Z,99.90
2022-08-21T08:30:57.738Z,99.90
2022-08-21T08:33:28.454Z,99.90
2022-08-21T08:36:04.681Z,99.90
2022-08-21T08:38:38.343Z,99.90
2022-08-21T08:41:20.754Z,99.90
2022-08-21T08:43:54.778Z,99.90
2022-08-21T08:46:43.133Z,99.90
2022-08-21T08:50:03.320Z,99.90
2022-08-21T08:52:43.611Z,99.90
2022-08-21T08:55:27.324Z,99.90
2022-08-21T08:57:58.593Z,99.90
2022-08-21T09:00:26.697Z,99.90
2022-08-21T09:02:56.722Z,99.90
2022-08-21T09:05:40.890Z,99.90
2022-08-21T09:08:27.376Z,99.90
2022-08-21T09:10:54.599Z,99.90
2022-08-21T09:13:52.500Z,99.90
2022-08-21T09:16:53.334Z,99.90
2022-08-21T09:19:51.915Z,99.90
2022-08-21T09:22:35.917Z,99.90
2022-08-21T09:25:25.023Z,99.90
2022-08-21T09:27:55.026Z,99.90
2022-08-21T09:30:31.733Z,99.90
2022-08-21T09:33:01.463Z,99.90
2022-08-21T09:35:38.227Z,99.60
2022-08-21T09:38:10.777Z,99.90
2022-08-21T09:40:50.237Z,99.80
2022-08-21T09:43:23.911Z,99.90
2022-08-21T09:46:11.045Z,99.90
2022-08-21T09:48:48.826Z,99.90
2022-08-21T09:51:23.325Z,99.90
2022-08-21T09:54:00.531Z,99.90
2022-08-21T09:56:56.789Z,99.90
2022-08-21T09:59:36.689Z,99.90
2022-08-21T10:02:32.560Z,99.90
2022-08-21T10:05:27.004Z,99.90
2022-08-21T10:07:57.083Z,99.90
2022-08-21T10:10:33.163Z,99.70
2022-08-21T10:13:19.223Z,99.80
2022-08-21T10:16:06.913Z,99.70
2022-08-21T10:18:50.613Z,99.90
2022-08-21T10:21:23.741Z,99.90
2022-08-21T10:24:02.010Z,99.90
2022-08-21T10:26:58.729Z,99.90
2022-08-21T10:30:04.671Z,99.80
2022-08-21T10:33:08.095Z,99.50
2022-08-21T10:35:43.636Z,98.70
2022-08-21T10:38:28.176Z,98.20
2022-08-21T10:41:11.657Z,97.90
2022-08-21T10:43:59.571Z,97.60
2022-08-21T10:47:00.520Z,97.80
2022-08-21T10:49:46.346Z,97.30
2022-08-21T10:52:34.698Z,98.40
2022-08-21T10:55:18.115Z,95.60
2022-08-21T10:58:16.222Z,94.80
2022-08-21T11:00:54.533Z,95.60
2022-08-21T11:03:39.259Z,95.50
2022-08-21T11:06:18.043Z,96.30
2022-08-21T11:08:58.366Z,99.90
2022-08-21T11:11:45.018Z,99.90
2022-08-21T11:14:35.178Z,94.10
2022-08-21T11:17:17.227Z,96.80
2022-08-21T11:20:04.769Z,99.90
2022-08-21T11:23:03.016Z,99.90
2022-08-21T11:25:37.181Z,98.50
2022-08-21T11:28:14.876Z,97.60
2022-08-21T11:31:03.286Z,99.90
2022-08-21T11:33:35.458Z,99.90
2022-08-21T11:36:30.065Z,99.90
2022-08-21T11:39:14.549Z,99.90
2022-08-21T11:42:09.162Z,99.90
2022-08-21T11:44:54.826Z,99.90
2022-08-21T11:47:43.608Z,99.90
2022-08-21T11:50:34.303Z,99.90
2022-08-21T11:53:20.079Z,99.90
2022-08-21T11:56:09.436Z,99.90
2022-08-21T11:58:46.348Z,99.90
2022-08-21T12:01:20.742Z,99.90
2022-08-21T12:04:01.127Z,99.90
2022-08-21T12:06:42.459Z,99.90
2022-08-21T12:09:35.280Z,99.90
2022-08-21T12:12:31.978Z,99.90
2022-08-21T12:15:18.704Z,99.90
2022-08-21T12:18:19.749Z,99.90
2022-08-21T12:21:07.066Z,99.90
2022-08-21T12:24:04.623Z,99.90
2022-08-21T12:26:59.441Z,99.90
2022-08-21T12:29:37.098Z,99.90
2022-08-21T12:32:16.054Z,99.90
2022-08-21T12:35:15.579Z,99.90
2022-08-21T12:38:07.580Z,99.90
2022-08-21T12:41:03.786Z,99.90
2022-08-21T12:43:41.642Z,99.90
2022-08-21T12:46:18.593Z,99.90
2022-08-21T12:49:16.629Z,99.90
2022-08-21T12:51:57.925Z,99.90
2022-08-21T12:54:39.016Z,99.90
2022-08-21T12:57:23.966Z,99.90
2022-08-21T13:00:04.084Z,99.90
2022-08-21T13:02:40.434Z,99.90
2022-08-21T13:05:15.226Z,99.90
2022-08-21T13:07:48.063Z,99.90
2022-08-21T13:10:20.219Z,99.90
2022-08-21T13:12:51.102Z,99.90
2022-08-21T13:15:33.372Z,99.90
2022-08-21T13:18:03.575Z,99.90
2022-08-21T13:20:40.275Z,99.90
2022-08-21T13:23:28.986Z,99.90
2022-08-21T13:25:58.975Z,99.60
2022-08-21T13:28:38.603Z,99.50
2022-08-21T13:31:18.132Z,99.90
2022-08-21T13:33:45.786Z,99.20
2022-08-21T13:36:20.994Z,99.40
2022-08-21T13:38:54.490Z,98.60
2022-08-21T13:41:31.130Z,99.10
2022-08-21T13:44:21.059Z,98.70
2022-08-21T13:46:50.617Z,98.90
2022-08-21T13:49:26.636Z,99.20
2022-08-21T13:51:56.354Z,99.30
2022-08-21T13:54:35.365Z,99.10
2022-08-21T13:57:03.061Z,99.60
2022-08-21T13:59:37.103Z,99.90
2022-08-21T14:02:17.152Z,99.90
2022-08-21T14:05:01.503Z,99.90
2022-08-21T14:07:43.545Z,99.90
2022-08-21T14:10:20.446Z,99.90
2022-08-21T14:12:59.553Z,99.80
2022-08-21T14:15:33.350Z,99.50
2022-08-21T14:18:15.037Z,99.90
2022-08-21T14:20:47.737Z,99.60
2022-08-21T14:23:30.682Z,99.60
2022-08-21T14:26:05.370Z,99.90
2022-08-21T14:28:36.410Z,99.90
2022-08-21T14:31:21.325Z,99.90
2022-08-21T14:33:51.350Z,99.90
2022-08-21T14:36:20.823Z,99.90
2022-08-21T14:38:53.111Z,99.90
2022-08-21T14:41:28.654Z,99.90
2022-08-21T14:44:09.238Z,99.90
2022-08-21T14:46:54.168Z,99.90
2022-08-21T14:49:28.724Z,99.90
2022-08-21T14:52:06.379Z,99.90
2022-08-21T14:54:38.274Z,99.90
2022-08-21T14:57:13.517Z,99.90
2022-08-21T14:59:43.980Z,99.90
2022-08-21T15:02:13.661Z,99.90
2022-08-21T15:04:45.757Z,99.90
2022-08-21T15:07:15.591Z,99.90
2022-08-21T15:09:47.747Z,99.90
2022-08-21T15:12:15.794Z,99.90
2022-08-21T15:14:43.007Z,99.90
2022-08-21T15:17:13.620Z,99.90
2022-08-21T15:19:45.790Z,99.90
2022-08-21T15:22:27.801Z,99.90
2022-08-21T15:25:00.165Z,99.90
2022-08-21T15:27:33.037Z,99.90
2022-08-21T15:30:00.451Z,99.90
2022-08-21T15:32:30.251Z,99.90
2022-08-21T15:34:58.670Z,99.90
2022-08-21T15:37:33.345Z,99.90
2022-08-21T15:40:00.778Z,99.90
2022-08-21T15:42:30.865Z,99.90
2022-08-21T15:44:58.870Z,99.90
2022-08-21T15:47:39.498Z,99.90
2022-08-21T15:50:09.604Z,99.90
2022-08-21T15:52:40.074Z,99.90
2022-08-21T15:55:08.738Z,99.90
2022-08-21T15:57:39.129Z,99.90
2022-08-21T16:00:24.694Z,99.90
2022-08-21T16:02:54.748Z,99.90
2022-08-21T16:05:22.798Z,99.90
2022-08-21T16:07:52.325Z,99.90
2022-08-21T16:10:29.891Z,99.90
2022-08-21T16:13:06.197Z,99.90
2022-08-21T16:15:33.974Z,99.90
2022-08-21T16:18:03.745Z,99.90
2022-08-21T16:20:35.406Z,99.90
2022-08-21T16:23:02.772Z,99.90
2022-08-21T16:25:37.277Z,99.90
2022-08-21T16:28:16.325Z,99.90
2022-08-21T16:30:49.825Z,99.90
2022-08-21T16:33:35.223Z,99.90
2022-08-21T16:36:05.696Z,99.90
2022-08-21T16:38:38.146Z,99.90
2022-08-21T16:41:13.673Z,99.90
2022-08-21T16:43:46.625Z,99.90
2022-08-21T16:46:15.582Z,99.90
2022-08-21T16:48:47.430Z,99.90
2022-08-21T16:51:17.815Z,99.90
2022-08-21T16:53:47.426Z,99.90
2022-08-21T16:56:15.839Z,99.90
2022-08-21T16:58:52.142Z,99.90
2022-08-21T17:01:26.408Z,99.90
2022-08-21T17:03:56.216Z,99.90
2022-08-21T17:06:30.306Z,99.90
2022-08-21T17:09:01.155Z,99.90
2022-08-21T17:11:47.624Z,99.90
2022-08-21T17:14:24.712Z,99.90
2022-08-21T17:16:59.259Z,99.90
2022-08-21T17:19:28.859Z,99.90
2022-08-21T17:22:00.770Z,99.90
2022-08-21T17:24:30.661Z,99.90
2022-08-21T17:27:00.849Z,99.90
2022-08-21T17:29:34.830Z,99.90
2022-08-21T17:32:08.363Z,99.90
2022-08-21T17:34:36.296Z,99.90
2022-08-21T17:37:08.566Z,99.90
2022-08-21T17:39:38.290Z,99.90
2022-08-21T17:42:13.735Z,99.90
2022-08-21T17:44:45.276Z,99.90
2022-08-21T17:47:15.718Z,99.90
2022-08-21T17:49:48.334Z,99.90
2022-08-21T17:52:17.754Z,99.90
2022-08-21T17:54:47.398Z,99.90
2022-08-21T17:57:22.695Z,99.90
2022-08-21T17:59:53.273Z,99.90
2022-08-21T18:02:24.412Z,99.90
2022-08-21T18:04:56.365Z,99.90
2022-08-21T18:07:32.734Z,99.90
2022-08-21T18:10:05.907Z,99.90
2022-08-21T18:12:38.808Z,99.90
2022-08-21T18:15:07.355Z,99.90
2022-08-21T18:17:39.823Z,99.90
2022-08-21T18:20:10.344Z,99.90
2022-08-21T18:22:42.507Z,99.90
2022-08-21T18:25:13.859Z,99.90
2022-08-21T18:27:44.159Z,99.90
2022-08-21T18:30:19.148Z,99.90
2022-08-21T18:32:49.446Z,99.90
2022-08-21T18:35:17.643Z,99.90
2022-08-21T18:37:47.333Z,99.90
2022-08-21T18:40:16.884Z,99.90
2022-08-21T18:42:55.304Z,99.90
2022-08-21T18:45:23.481Z,99.90
2022-08-21T18:47:55.488Z,99.90
2022-08-21T18:50:29.167Z,99.90
2022-08-21T18:52:56.895Z,99.90
2022-08-21T18:55:24.946Z,99.90
2022-08-21T18:58:02.045Z,99.90
2022-08-21T19:00:38.029Z,99.90
2022-08-21T19:05:54.949Z,99.90
2022-08-21T19:10:58.379Z,99.90
2022-08-21T19:13:28.529Z,99.90
2022-08-21T19:18:35.589Z,99.90
2022-08-21T19:21:03.807Z,99.90
2022-08-21T19:23:36.003Z,99.90
2022-08-21T19:26:12.630Z,99.90
2022-08-21T19:28:51.462Z,99.90
2022-08-21T19:31:23.581Z,99.90
2022-08-21T19:34:03.482Z,99.90
2022-08-21T19:36:34.001Z,99.90
2022-08-21T19:39:07.273Z,99.90
2022-08-21T19:44:37.051Z,99.90
2022-08-21T19:47:18.924Z,99.90
2022-08-21T19:49:56.595Z,99.90
2022-08-21T19:52:27.394Z,99.90
2022-08-21T19:54:54.763Z,99.90
2022-08-21T19:57:22.480Z,99.90
2022-08-21T19:59:54.912Z,99.90
2022-08-21T20:02:28.139Z,99.90
2022-08-21T20:04:57.987Z,99.90
2022-08-21T20:07:27.187Z,99.90
2022-08-21T20:10:02.550Z,99.90
2022-08-21T20:12:35.090Z,99.90
2022-08-21T20:15:08.150Z,99.90
2022-08-21T20:17:35.750Z,99.90
2022-08-21T20:20:04.277Z,99.90
2022-08-21T20:22:33.876Z,99.90
2022-08-21T20:25:01.262Z,99.90
2022-08-21T20:27:31.671Z,99.90
2022-08-21T20:30:08.857Z,99.90
2022-08-21T20:32:36.357Z,99.90
2022-08-21T20:35:05.628Z,99.90
2022-08-21T20:37:42.218Z,99.90
2022-08-21T20:40:14.043Z,99.90
2022-08-21T20:42:47.436Z,99.90
2022-08-21T20:45:23.896Z,99.90
2022-08-21T20:48:11.465Z,99.90
2022-08-21T20:50:49.227Z,99.90
2022-08-21T20:53:22.472Z,99.90
2022-08-21T20:55:53.294Z,99.90
2022-08-21T20:58:33.364Z,99.90
2022-08-21T21:01:08.993Z,99.90
2022-08-21T21:03:36.123Z,99.90
2022-08-21T21:06:07.875Z,99.90
2022-08-21T21:09:03.645Z,99.90
2022-08-21T21:11:58.847Z,99.90
2022-08-21T21:14:54.305Z,99.90
2022-08-21T21:17:30.223Z,99.90
2022-08-21T21:20:06.964Z,99.90
2022-08-21T21:23:04.993Z,99.90
2022-08-21T21:25:49.309Z,99.90
2022-08-21T21:29:01.682Z,99.90
2022-08-21T21:31:35.696Z,99.90
2022-08-21T21:34:03.325Z,99.90
2022-08-21T21:36:51.453Z,99.90
2022-08-21T21:39:36.658Z,99.90
2022-08-21T21:42:17.484Z,99.90
2022-08-21T21:45:11.410Z,99.90
2022-08-21T21:47:56.843Z,99.90
2022-08-21T21:50:42.859Z,99.90
2022-08-21T21:53:31.934Z,99.90
2022-08-21T21:56:29.267Z,99.90
2022-08-21T21:59:12.964Z,99.90
2022-08-21T22:02:01.398Z,99.90
2022-08-21T22:04:46.900Z,99.90
2022-08-21T22:07:29.739Z,99.90
2022-08-21T22:10:43.000Z,99.90
2022-08-21T22:13:31.228Z,99.90
2022-08-21T22:16:09.114Z,99.90
2022-08-21T22:18:45.183Z,99.90
2022-08-21T22:21:15.297Z,99.90
2022-08-21T22:23:48.793Z,99.90
2022-08-21T22:26:25.657Z,99.90
2022-08-21T22:29:00.370Z,99.90
2022-08-21T22:31:36.084Z,99.90
2022-08-21T22:34:17.918Z,99.90
2022-08-21T22:36:59.485Z,99.90
2022-08-21T22:42:27.470Z,99.90
2022-08-21T22:44:58.314Z,99.90
2022-08-21T22:47:39.141Z,99.90
2022-08-21T22:50:27.177Z,99.90
2022-08-21T22:53:00.035Z,99.90
2022-08-21T22:55:54.805Z,99.90
2022-08-21T22:58:29.312Z,99.90
2022-08-21T23:01:33.348Z,99.90
2022-08-21T23:04:22.048Z,99.90
2022-08-21T23:06:56.239Z,99.90
2022-08-21T23:10:00.197Z,99.90
2022-08-21T23:12:39.757Z,99.90
2022-08-21T23:15:12.959Z,99.90
2022-08-21T23:18:13.532Z,99.90
2022-08-21T23:20:55.609Z,99.90
2022-08-21T23:23:34.935Z,99.90
2022-08-21T23:26:33.492Z,99.90
2022-08-21T23:29:09.910Z,99.90
2022-08-21T23:32:08.061Z,99.90
2022-08-21T23:34:43.300Z,99.90
2022-08-21T23:37:48.767Z,99.90
2022-08-21T23:40:27.904Z,99.90
2022-08-21T23:43:19.086Z,99.90
2022-08-21T23:46:18.919Z,99.90
2022-08-21T23:49:17.709Z,99.90
2022-08-21T23:52:15.858Z,99.90
2022-08-21T23:54:56.545Z,99.90
2022-08-21T23:57:42.642Z,99.90
